Terminal Aerodrome Forecast
Issued by NWS Quad Cities IA IL

Home | Current Version | Previous Version | Text Only | Print | Product List | Glossary On
Versions: 1 2 3 4 5 6 7 8 9 10 11 12 13 14 15 16 17 18 19 20 21 22 23 24 25 26 27 28 29 30 31 32 33
706
FTUS43 KDVN 160129 AAA
TAFMLI
TAF AMD
KMLI 160129Z 1601/1624 30015G25KT P6SM OVC020
      TEMPO 1602/1604 SCT020
     FM160400 32008KT P6SM SKC
     FM161600 01005KT P6SM FEW250
     FM162100 12004KT P6SM SCT250=

USA.gov is the U.S. government's official web portal to all federal, state and local government web resources and services.